createdAt,value
2023-03-16T00:02:06.587Z,80.70
2023-03-16T00:07:13.890Z,80.96
2023-03-16T00:12:19.993Z,81.06
2023-03-16T00:17:26.841Z,81.15
2023-03-16T00:22:32.319Z,81.29
2023-03-16T00:27:38.167Z,81.42
2023-03-16T00:32:43.579Z,81.58
2023-03-16T00:37:48.968Z,81.58
2023-03-16T00:42:55.215Z,81.80
2023-03-16T00:48:02.143Z,81.98
2023-03-16T00:53:07.484Z,81.97
2023-03-16T00:58:15.002Z,82.14
2023-03-16T01:03:20.411Z,82.22
2023-03-16T01:08:27.945Z,82.32
2023-03-16T01:13:33.460Z,82.41
2023-03-16T01:18:39.237Z,82.57
2023-03-16T01:23:45.217Z,82.60
2023-03-16T01:28:50.861Z,82.38
2023-03-16T01:33:56.530Z,82.33
2023-03-16T01:39:01.791Z,81.99
2023-03-16T01:44:11.387Z,81.92
2023-03-16T01:49:20.651Z,81.93
2023-03-16T01:54:29.872Z,81.86
2023-03-16T01:59:38.776Z,81.99
2023-03-16T02:04:50.814Z,81.84
2023-03-16T02:10:01.008Z,82.00
2023-03-16T02:15:08.386Z,82.01
2023-03-16T02:20:29.073Z,82.02
2023-03-16T02:25:45.134Z,81.92
2023-03-16T02:30:51.371Z,81.90
2023-03-16T02:35:56.817Z,81.82
2023-03-16T02:41:12.190Z,81.71
2023-03-16T02:46:20.173Z,81.79
2023-03-16T02:51:25.491Z,81.73
2023-03-16T02:56:30.894Z,81.80
2023-03-16T03:01:36.685Z,81.70
2023-03-16T03:06:42.218Z,81.53
2023-03-16T03:11:47.716Z,81.48
2023-03-16T03:16:53.003Z,81.63
2023-03-16T03:21:58.480Z,81.71
2023-03-16T03:27:05.960Z,81.84
2023-03-16T03:32:12.142Z,81.87
2023-03-16T03:37:18.263Z,82.02
2023-03-16T03:42:24.049Z,81.97
2023-03-16T03:47:29.401Z,81.85
2023-03-16T03:52:34.866Z,82.24
2023-03-16T03:57:41.147Z,82.13
2023-03-16T04:02:47.025Z,82.04
2023-03-16T04:07:55.291Z,82.14
2023-03-16T04:13:01.470Z,82.22
2023-03-16T04:18:06.829Z,82.14
2023-03-16T04:23:12.189Z,82.44
2023-03-16T04:28:18.035Z,82.57
2023-03-16T04:33:23.782Z,82.59
2023-03-16T04:38:29.357Z,82.70
2023-03-16T04:43:36.310Z,82.65
2023-03-16T04:48:41.706Z,82.60
2023-03-16T04:53:47.036Z,82.77
2023-03-16T04:58:52.413Z,82.58
2023-03-16T05:03:59.681Z,82.51
2023-03-16T05:09:08.050Z,82.44
2023-03-16T05:14:13.403Z,82.72
2023-03-16T05:19:19.321Z,82.68
2023-03-16T05:24:24.709Z,82.38
2023-03-16T05:29:31.304Z,82.79
2023-03-16T05:34:36.709Z,82.75
2023-03-16T05:39:42.053Z,82.86
2023-03-16T05:44:47.440Z,82.27
2023-03-16T05:49:53.350Z,82.20
2023-03-16T05:54:58.835Z,82.04
2023-03-16T06:00:16.202Z,82.26
2023-03-16T06:05:23.156Z,82.54
2023-03-16T06:10:28.795Z,82.60
2023-03-16T06:15:34.422Z,82.91
2023-03-16T06:20:39.698Z,83.07
2023-03-16T06:25:46.429Z,82.89
2023-03-16T06:30:55.322Z,82.58
2023-03-16T06:36:01.818Z,82.21
2023-03-16T06:41:07.254Z,82.68
2023-03-16T06:46:12.912Z,83.57
2023-03-16T06:51:18.223Z,83.77
2023-03-16T06:56:24.231Z,83.08
2023-03-16T07:01:29.903Z,81.15
2023-03-16T07:06:35.332Z,79.82
2023-03-16T07:11:41.032Z,79.16
2023-03-16T07:16:46.487Z,78.77
2023-03-16T07:21:51.994Z,78.39
2023-03-16T07:26:57.273Z,77.55
2023-03-16T07:32:04.011Z,76.37
2023-03-16T07:37:10.044Z,76.08
2023-03-16T07:42:15.581Z,74.89
2023-03-16T07:47:21.145Z,74.67
2023-03-16T07:52:26.702Z,73.81
2023-03-16T07:57:32.043Z,73.22
2023-03-16T08:02:37.506Z,72.20
2023-03-16T08:07:43.148Z,71.27
2023-03-16T08:12:48.530Z,71.02
2023-03-16T08:17:54.224Z,71.10
2023-03-16T08:22:59.805Z,70.80
2023-03-16T08:28:06.054Z,70.03
2023-03-16T08:33:11.645Z,69.13
2023-03-16T08:38:17.275Z,68.58
2023-03-16T08:43:24.100Z,68.22
2023-03-16T08:48:29.606Z,67.77
2023-03-16T08:53:36.759Z,66.70
2023-03-16T08:58:46.149Z,65.87
2023-03-16T09:03:52.855Z,66.06
2023-03-16T09:08:58.853Z,65.26
2023-03-16T09:14:04.650Z,63.86
2023-03-16T09:19:13.574Z,63.00
2023-03-16T09:24:19.335Z,63.20
2023-03-16T09:29:24.856Z,61.90
2023-03-16T09:34:30.606Z,61.33
2023-03-16T09:39:37.118Z,59.42
2023-03-16T09:44:54.163Z,58.83
2023-03-16T09:50:03.227Z,58.05
2023-03-16T09:55:26.043Z,58.63
2023-03-16T10:00:37.632Z,57.04
2023-03-16T10:05:43.884Z,55.20
2023-03-16T10:11:14.380Z,55.04
2023-03-16T10:16:25.561Z,54.01
2023-03-16T10:21:38.804Z,53.30
2023-03-16T10:26:54.582Z,54.16
2023-03-16T10:32:11.931Z,53.43
2023-03-16T10:37:17.214Z,53.10
2023-03-16T10:42:24.107Z,53.00
2023-03-16T10:47:32.866Z,52.19
2023-03-16T10:52:43.231Z,51.59
2023-03-16T10:57:53.636Z,51.08
2023-03-16T11:03:02.613Z,51.22
2023-03-16T11:08:13.210Z,51.04
2023-03-16T11:13:20.993Z,51.16
2023-03-16T11:18:33.974Z,50.33
2023-03-16T11:23:45.987Z,50.29
2023-03-16T11:29:01.731Z,48.46
2023-03-16T11:34:14.643Z,48.00
2023-03-16T11:39:31.994Z,45.25
2023-03-16T11:44:44.719Z,46.09
2023-03-16T11:49:58.810Z,45.74
2023-03-16T11:55:19.575Z,45.50
2023-03-16T12:00:38.579Z,45.88
2023-03-16T12:05:59.291Z,46.45
2023-03-16T12:11:10.343Z,43.62
2023-03-16T12:16:21.586Z,44.37
2023-03-16T12:21:32.342Z,43.81
2023-03-16T12:26:42.439Z,42.94
2023-03-16T12:31:55.903Z,40.59
2023-03-16T12:37:15.119Z,42.88
2023-03-16T12:42:35.885Z,41.24
2023-03-16T12:47:49.690Z,41.45
2023-03-16T12:52:55.806Z,42.22
2023-03-16T12:58:06.207Z,40.42
2023-03-16T13:03:19.952Z,38.76
2023-03-16T13:08:27.718Z,39.85
2023-03-16T13:13:34.267Z,41.22
2023-03-16T13:18:45.166Z,40.94
2023-03-16T13:23:59.693Z,41.24
2023-03-16T13:29:19.049Z,39.83
2023-03-16T13:34:29.799Z,38.85
2023-03-16T13:39:35.358Z,39.00
2023-03-16T13:44:42.820Z,39.59
2023-03-16T13:49:50.855Z,39.06
2023-03-16T13:54:58.760Z,35.38
2023-03-16T14:00:18.300Z,34.11
2023-03-16T14:05:26.210Z,36.71
2023-03-16T14:10:35.433Z,36.28
2023-03-16T14:15:41.179Z,36.33
2023-03-16T14:20:47.030Z,36.08
2023-03-16T14:25:53.621Z,36.02
2023-03-16T14:31:06.553Z,35.79
2023-03-16T14:36:15.451Z,35.78
2023-03-16T14:41:25.931Z,35.52
2023-03-16T14:46:33.986Z,36.53
2023-03-16T14:51:40.832Z,36.52
2023-03-16T14:56:50.381Z,35.18
2023-03-16T15:01:56.836Z,33.55
2023-03-16T15:07:07.767Z,34.95
2023-03-16T15:12:18.105Z,34.44
2023-03-16T15:17:23.716Z,35.59
2023-03-16T15:22:32.437Z,35.79
2023-03-16T15:27:37.796Z,35.55
2023-03-16T15:32:43.218Z,34.46
2023-03-16T15:37:48.898Z,34.92
2023-03-16T15:42:54.457Z,34.94
2023-03-16T15:48:00.447Z,35.27
2023-03-16T15:53:09.142Z,34.95
2023-03-16T15:58:20.365Z,33.74
2023-03-16T16:03:27.488Z,34.52
2023-03-16T16:08:32.803Z,34.11
2023-03-16T16:13:44.751Z,34.19
2023-03-16T16:18:50.924Z,34.11
2023-03-16T16:23:56.985Z,33.39
2023-03-16T16:29:05.966Z,34.20
2023-03-16T16:34:15.946Z,35.11
2023-03-16T16:39:22.012Z,35.20
2023-03-16T16:44:31.989Z,33.80
2023-03-16T16:49:39.251Z,33.51
2023-03-16T16:54:44.533Z,33.92
2023-03-16T16:59:50.028Z,34.74
2023-03-16T17:04:55.452Z,34.72
2023-03-16T17:10:01.149Z,35.09
2023-03-16T17:15:24.834Z,35.51
2023-03-16T17:20:31.253Z,36.12
2023-03-16T17:25:36.737Z,36.37
2023-03-16T17:30:42.740Z,36.53
2023-03-16T17:35:48.771Z,37.04
2023-03-16T17:40:55.070Z,37.20
2023-03-16T17:46:01.699Z,37.33
2023-03-16T17:51:10.822Z,37.55
2023-03-16T17:56:21.921Z,37.20
2023-03-16T18:01:33.565Z,37.83
2023-03-16T18:06:39.019Z,37.78
2023-03-16T18:11:49.050Z,38.04
2023-03-16T18:16:54.729Z,38.41
2023-03-16T18:22:00.150Z,38.51
2023-03-16T18:27:06.641Z,38.36
2023-03-16T18:32:20.330Z,37.84
2023-03-16T18:37:30.356Z,37.70
2023-03-16T18:42:36.010Z,37.60
2023-03-16T18:47:44.609Z,37.87
2023-03-16T18:52:50.822Z,38.01
2023-03-16T18:57:57.390Z,38.22
2023-03-16T19:03:04.091Z,38.15
2023-03-16T19:08:13.237Z,38.19
2023-03-16T19:13:21.533Z,38.31
2023-03-16T19:18:27.150Z,38.37
2023-03-16T19:23:36.336Z,38.16
2023-03-16T19:28:46.040Z,38.49
2023-03-16T19:33:52.474Z,39.07
2023-03-16T19:38:59.263Z,39.38
2023-03-16T19:44:13.184Z,39.45
2023-03-16T19:49:20.332Z,39.71
2023-03-16T19:54:27.762Z,39.50
2023-03-16T19:59:35.143Z,39.93
2023-03-16T20:04:40.682Z,39.78
2023-03-16T20:09:46.685Z,40.20
2023-03-16T20:14:52.983Z,40.42
2023-03-16T20:19:58.856Z,40.33
2023-03-16T20:25:05.315Z,40.38
2023-03-16T20:30:19.518Z,40.66
2023-03-16T20:35:28.486Z,40.56
2023-03-16T20:40:34.058Z,40.24
2023-03-16T20:45:39.586Z,40.20
2023-03-16T20:50:45.095Z,40.90
2023-03-16T20:55:51.441Z,41.21
2023-03-16T21:00:57.893Z,41.43
2023-03-16T21:06:07.350Z,41.86
2023-03-16T21:11:22.892Z,42.25
2023-03-16T21:16:29.080Z,42.99
2023-03-16T21:21:34.488Z,43.17
2023-03-16T21:26:41.970Z,43.52
2023-03-16T21:31:48.453Z,44.02
2023-03-16T21:36:54.193Z,44.14
2023-03-16T21:41:59.490Z,44.70
2023-03-16T21:47:11.029Z,45.37
2023-03-16T21:52:23.799Z,45.81
2023-03-16T21:57:29.200Z,46.22
2023-03-16T22:02:36.796Z,46.17
2023-03-16T22:07:42.206Z,46.61
2023-03-16T22:12:47.565Z,47.26
2023-03-16T22:17:53.667Z,47.46
2023-03-16T22:22:59.838Z,47.81
2023-03-16T22:28:12.664Z,47.94
2023-03-16T22:33:22.602Z,48.14
2023-03-16T22:38:28.097Z,48.33
2023-03-16T22:43:36.849Z,48.46
2023-03-16T22:48:42.283Z,48.50
2023-03-16T22:53:48.483Z,48.61
2023-03-16T22:58:58.538Z,49.00
2023-03-16T23:04:13.727Z,49.02
2023-03-16T23:09:21.905Z,49.35
2023-03-16T23:14:32.866Z,49.44
2023-03-16T23:19:38.440Z,49.44
2023-03-16T23:24:47.374Z,49.65
2023-03-16T23:29:53.201Z,49.66
2023-03-16T23:34:59.182Z,50.00
2023-03-16T23:40:05.790Z,49.95
2023-03-16T23:45:21.272Z,50.48
2023-03-16T23:50:29.776Z,50.64
2023-03-16T23:55:35.341Z,50.77
